Du har inga inställningar för hoppväder.nu

Hoppväder.nu

Senast uppdaterat 05:31

UTC-tid

2022-06-28 kl. 03:31


Sol och måne

Solen går upp 3:45 och går ner 23:06 (beräknade cirkatider)
Nästa fullmåne blir om 15 dagar (2022-07-13)

METAR

ESKN (Skavsta)
(11 minuter sedan)
ESKN 280320Z 12009KT CAVOK 22/17 Q1016=



ESSB (Bromma)
(11 minuter sedan)
ESSB 280320Z AUTO 11005KT 9999 FEW064/// 21/18 Q1017=



ESOE (Örebro)
(11 minuter sedan)
ESOE 280320Z AUTO 02006KT 9999 NCD 18/15 Q1015=



ESSL (Linköping)
(11 minuter sedan)
ESSL 280320Z 11004KT CAVOK 19/16 Q1015=



ESSP (Norrköping)
(11 minuter sedan)
ESSP 280320Z AUTO 09001KT 9999 SCT084/// 17/16 Q1015=



TAF

ESKN (Skavsta)
(61 minuter sedan)
ESKN 280230Z 2803/2903 13006KT CAVOK PROB40 2813/2819 SHRA BKN070CB BECMG 2812/2814 29010KT=



ESSB (Bromma)
(61 minuter sedan)
ESSB 280230Z 2803/2812 12010KT CAVOK=



ESOE (Örebro)
(61 minuter sedan)
ESOE 280230Z 2803/2808 10005KT CAVOK PROB40 2805/2808 SHRA BKN050CB=



ESSL (Linköping)
(61 minuter sedan)
ESSL 280230Z 2803/2812 14008KT CAVOK PROB40 2808/2812 SHRA BKN065CB=



ESSP (Norrköping)
ESSP





Kodnycklar till TAF och METAR






LHP

(Nyköping är område se32b i Delområde 4)

Prognos är inte uppdaterad






Preliminär prognos